createdAt,value
2023-01-19T00:00:50.944Z,97626.81
2023-01-19T00:03:17.977Z,97627.63
2023-01-19T00:05:45.449Z,97633.31
2023-01-19T00:08:15.725Z,97638.22
2023-01-19T00:10:45.029Z,97639.50
2023-01-19T00:13:11.681Z,97641.91
2023-01-19T00:15:38.309Z,97641.28
2023-01-19T00:18:05.403Z,97636.06
2023-01-19T00:20:35.677Z,97643.22
2023-01-19T00:23:04.661Z,97633.03
2023-01-19T00:25:31.213Z,97633.50
2023-01-19T00:27:59.805Z,97637.13
2023-01-19T00:30:27.063Z,97635.34
2023-01-19T00:32:53.601Z,97633.50
2023-01-19T00:35:20.087Z,97631.88
2023-01-19T00:37:46.678Z,97636.38
2023-01-19T00:40:14.136Z,97636.78
2023-01-19T00:42:41.029Z,97631.69
2023-01-19T00:45:09.756Z,97638.56
2023-01-19T00:47:36.878Z,97638.78
2023-01-19T00:50:03.734Z,97633.09
2023-01-19T00:52:30.239Z,97638.16
2023-01-19T00:54:56.780Z,97646.09
2023-01-19T00:57:23.581Z,97640.41
2023-01-19T00:59:50.312Z,97644.88
2023-01-19T01:02:17.031Z,97645.69
2023-01-19T01:04:43.763Z,97646.50
2023-01-19T01:07:10.294Z,97648.72
2023-01-19T01:09:36.985Z,97649.72
2023-01-19T01:12:03.829Z,97652.59
2023-01-19T01:14:32.695Z,97655.84
2023-01-19T01:16:59.363Z,97658.91
2023-01-19T01:19:26.139Z,97656.03
2023-01-19T01:21:52.668Z,97656.66
2023-01-19T01:24:19.218Z,97659.78
2023-01-19T01:26:46.050Z,97668.75
2023-01-19T01:29:12.657Z,97660.41
2023-01-19T01:31:39.171Z,97663.41
2023-01-19T01:34:05.915Z,97658.16
2023-01-19T01:36:33.565Z,97663.81
2023-01-19T01:39:00.325Z,97676.00
2023-01-19T01:41:27.527Z,97671.94
2023-01-19T01:44:02.883Z,97682.03
2023-01-19T01:46:31.755Z,97680.00
2023-01-19T01:49:10.304Z,97673.50
2023-01-19T01:51:48.164Z,97680.50
2023-01-19T01:54:28.383Z,97686.94
2023-01-19T01:57:00.495Z,97684.09
2023-01-19T01:59:34.824Z,97686.75
2023-01-19T02:02:23.784Z,97685.97
2023-01-19T02:04:54.396Z,97676.00
2023-01-19T02:07:51.986Z,97682.91
2023-01-19T02:10:37.429Z,97686.03
2023-01-19T02:13:22.615Z,97689.09
2023-01-19T02:15:51.740Z,97690.72
2023-01-19T02:18:20.160Z,97682.78
2023-01-19T02:21:19.074Z,97691.41
2023-01-19T02:23:50.986Z,97683.84
2023-01-19T02:26:24.331Z,97692.81
2023-01-19T02:28:57.549Z,97684.06
2023-01-19T02:31:25.051Z,97690.78
2023-01-19T02:33:52.749Z,97691.84
2023-01-19T02:36:23.529Z,97685.91
2023-01-19T02:39:01.081Z,97698.56
2023-01-19T02:41:34.266Z,97692.25
2023-01-19T02:44:01.527Z,97689.66
2023-01-19T02:46:28.102Z,97700.63
2023-01-19T02:48:59.262Z,97698.81
2023-01-19T02:51:27.072Z,97691.66
2023-01-19T02:54:20.264Z,97699.41
2023-01-19T02:57:01.688Z,97695.34
2023-01-19T02:59:41.216Z,97699.03
2023-01-19T03:02:26.565Z,97701.69
2023-01-19T03:05:34.924Z,97699.44
2023-01-19T03:08:29.656Z,97698.59
2023-01-19T03:11:09.962Z,97703.06
2023-01-19T03:13:49.271Z,97704.50
2023-01-19T03:16:25.242Z,97706.53
2023-01-19T03:18:55.785Z,97709.56
2023-01-19T03:21:26.674Z,97706.13
2023-01-19T03:23:58.060Z,97698.00
2023-01-19T03:26:30.188Z,97708.59
2023-01-19T03:29:00.349Z,97703.53
2023-01-19T03:31:31.836Z,97697.22
2023-01-19T03:34:03.602Z,97700.25
2023-01-19T03:36:35.506Z,97699.63
2023-01-19T03:39:05.137Z,97701.06
2023-01-19T03:41:34.281Z,97696.56
2023-01-19T03:44:01.645Z,97698.19
2023-01-19T03:46:28.774Z,97701.88
2023-01-19T03:48:57.046Z,97699.03
2023-01-19T03:51:23.597Z,97693.94
2023-01-19T03:53:50.113Z,97694.31
2023-01-19T03:56:23.916Z,97694.09
2023-01-19T03:58:51.368Z,97688.63
2023-01-19T04:01:22.904Z,97704.69
2023-01-19T04:03:50.550Z,97705.94
2023-01-19T04:06:17.570Z,97707.31
2023-01-19T04:08:44.581Z,97709.97
2023-01-19T04:11:11.612Z,97703.94
2023-01-19T04:13:38.468Z,97707.00
2023-01-19T04:16:05.781Z,97703.13
2023-01-19T04:18:34.849Z,97706.09
2023-01-19T04:21:03.399Z,97712.56
2023-01-19T04:23:30.029Z,97704.25
2023-01-19T04:26:00.676Z,97696.91
2023-01-19T04:28:27.629Z,97695.78
2023-01-19T04:30:54.681Z,97698.41
2023-01-19T04:33:22.479Z,97708.78
2023-01-19T04:35:52.273Z,97714.06
2023-01-19T04:38:20.599Z,97717.31
2023-01-19T04:40:49.056Z,97712.03
2023-01-19T04:43:15.814Z,97714.03
2023-01-19T04:45:44.784Z,97720.34
2023-01-19T04:48:12.190Z,97718.69
2023-01-19T04:50:39.139Z,97715.63
2023-01-19T04:53:05.689Z,97726.38
2023-01-19T04:55:32.135Z,97725.13
2023-01-19T04:57:58.672Z,97721.63
2023-01-19T05:00:26.832Z,97724.75
2023-01-19T05:02:53.958Z,97725.97
2023-01-19T05:05:20.539Z,97725.22
2023-01-19T05:07:47.012Z,97728.97
2023-01-19T05:10:13.605Z,97725.41
2023-01-19T05:12:40.189Z,97731.50
2023-01-19T05:15:07.792Z,97731.13
2023-01-19T05:17:34.557Z,97729.00
2023-01-19T05:20:01.098Z,97737.81
2023-01-19T05:22:27.601Z,97732.06
2023-01-19T05:24:54.410Z,97735.06
2023-01-19T05:27:21.045Z,97737.09
2023-01-19T05:29:47.574Z,97744.91
2023-01-19T05:32:14.088Z,97732.22
2023-01-19T05:34:40.915Z,97740.72
2023-01-19T05:37:07.430Z,97742.56
2023-01-19T05:39:34.117Z,97746.28
2023-01-19T05:42:00.586Z,97745.81
2023-01-19T05:44:27.172Z,97750.66
2023-01-19T05:46:53.665Z,97748.69
2023-01-19T05:49:20.102Z,97743.97
2023-01-19T05:51:46.657Z,97756.19
2023-01-19T05:54:15.414Z,97758.03
2023-01-19T05:56:42.933Z,97758.97
2023-01-19T05:59:10.536Z,97756.97
2023-01-19T06:01:39.894Z,97765.03
2023-01-19T06:04:06.563Z,97761.97
2023-01-19T06:06:33.116Z,97759.31
2023-01-19T06:08:59.623Z,97762.09
2023-01-19T06:11:26.231Z,97767.25
2023-01-19T06:13:52.970Z,97767.19
2023-01-19T06:16:19.585Z,97782.22
2023-01-19T06:18:46.128Z,97779.28
2023-01-19T06:21:14.258Z,97788.19
2023-01-19T06:23:40.929Z,97784.88
2023-01-19T06:26:07.821Z,97792.94
2023-01-19T06:28:34.423Z,97801.00
2023-01-19T06:31:01.787Z,97793.72
2023-01-19T06:33:28.635Z,97790.06
2023-01-19T06:35:55.965Z,97786.19
2023-01-19T06:38:22.573Z,97798.63
2023-01-19T06:41:00.106Z,97797.94
2023-01-19T06:43:26.853Z,97798.16
2023-01-19T06:45:53.566Z,97800.69
2023-01-19T06:48:20.542Z,97801.34
2023-01-19T06:50:48.430Z,97795.16
2023-01-19T06:53:16.693Z,97801.78
2023-01-19T06:55:44.098Z,97802.56
2023-01-19T06:58:11.503Z,97800.34
2023-01-19T07:00:38.511Z,97807.94
2023-01-19T07:03:09.005Z,97805.44
2023-01-19T07:05:36.470Z,97814.41
2023-01-19T07:08:03.990Z,97811.84
2023-01-19T07:11:25.420Z,97810.59
2023-01-19T07:13:17.522Z,97818.34
2023-01-19T07:15:44.146Z,97825.13
2023-01-19T07:18:10.730Z,97825.63
2023-01-19T07:20:40.480Z,97827.81
2023-01-19T07:23:06.956Z,97833.84
2023-01-19T07:25:33.463Z,97836.88
2023-01-19T07:28:00.222Z,97831.19
2023-01-19T07:30:27.026Z,97826.72
2023-01-19T07:32:58.071Z,97830.28
2023-01-19T07:35:25.700Z,97831.22
2023-01-19T07:37:52.225Z,97832.22
2023-01-19T07:40:18.845Z,97835.78
2023-01-19T07:42:49.379Z,97844.19
2023-01-19T07:45:17.549Z,97829.47
2023-01-19T07:47:48.958Z,97842.75
2023-01-19T07:50:17.054Z,97848.50
2023-01-19T07:52:44.648Z,97860.28
2023-01-19T07:55:11.265Z,97846.16
2023-01-19T07:57:37.756Z,97852.97
2023-01-19T08:00:05.051Z,97856.22
2023-01-19T08:02:34.007Z,97855.91
2023-01-19T08:05:00.556Z,97855.38
2023-01-19T08:07:27.105Z,97855.63
2023-01-19T08:09:53.769Z,97859.91
2023-01-19T08:12:20.379Z,97865.25
2023-01-19T08:14:46.970Z,97866.06
2023-01-19T08:17:13.903Z,97865.19
2023-01-19T08:19:41.640Z,97865.44
2023-01-19T08:22:08.248Z,97870.50
2023-01-19T08:24:34.715Z,97876.56
2023-01-19T08:27:02.716Z,97874.75
2023-01-19T08:29:33.615Z,97868.63
2023-01-19T08:32:02.254Z,97864.56
2023-01-19T08:34:32.935Z,97880.47
2023-01-19T08:36:59.686Z,97866.69
2023-01-19T08:39:27.478Z,97869.97
2023-01-19T08:41:54.588Z,97884.09
2023-01-19T08:44:21.125Z,97880.44
2023-01-19T08:46:48.018Z,97881.63
2023-01-19T08:49:14.641Z,97873.81
2023-01-19T08:51:41.194Z,97884.47
2023-01-19T08:54:07.869Z,97883.91
2023-01-19T08:56:34.406Z,97880.75
2023-01-19T08:59:09.138Z,97883.38
2023-01-19T09:01:37.396Z,97887.22
2023-01-19T09:04:04.452Z,97885.97
2023-01-19T09:06:31.006Z,97880.72
2023-01-19T09:08:57.786Z,97890.19
2023-01-19T09:11:24.333Z,97881.34
2023-01-19T09:13:51.132Z,97875.59
2023-01-19T09:16:18.207Z,97872.53
2023-01-19T09:18:45.957Z,97877.00
2023-01-19T09:21:12.629Z,97873.22
2023-01-19T09:23:39.274Z,97873.59
2023-01-19T09:26:06.621Z,97873.16
2023-01-19T09:28:33.594Z,97875.25
2023-01-19T09:31:05.542Z,97875.63
2023-01-19T09:33:32.103Z,97865.50
2023-01-19T09:35:58.675Z,97865.69
2023-01-19T09:38:25.949Z,97873.75
2023-01-19T09:40:57.219Z,97868.28
2023-01-19T09:43:41.485Z,97871.69
2023-01-19T09:46:32.733Z,97868.06
2023-01-19T09:49:05.074Z,97861.13
2023-01-19T09:51:41.013Z,97856.84
2023-01-19T09:54:17.189Z,97871.88
2023-01-19T09:56:51.338Z,97869.88
2023-01-19T09:59:26.527Z,97875.84
2023-01-19T10:02:11.592Z,97868.72
2023-01-19T10:04:42.026Z,97868.81
2023-01-19T10:07:35.759Z,97865.81
2023-01-19T10:10:23.159Z,97866.06
2023-01-19T10:13:24.947Z,97862.38
2023-01-19T10:16:31.521Z,97862.47
2023-01-19T10:19:08.341Z,97852.81
2023-01-19T10:21:41.897Z,97849.53
2023-01-19T10:24:21.083Z,97844.69
2023-01-19T10:26:52.472Z,97846.00
2023-01-19T10:29:25.725Z,97844.94
2023-01-19T10:31:55.327Z,97844.84
2023-01-19T10:34:23.914Z,97845.31
2023-01-19T10:36:58.271Z,97846.88
2023-01-19T10:39:24.891Z,97849.56
2023-01-19T10:41:53.489Z,97847.78
2023-01-19T10:44:25.870Z,97845.94
2023-01-19T10:46:54.446Z,97841.78
2023-01-19T10:49:31.318Z,97827.88
2023-01-19T10:51:59.913Z,97835.13
2023-01-19T10:54:29.995Z,97835.69
2023-01-19T10:57:03.486Z,97832.78
2023-01-19T10:59:31.796Z,97829.84
2023-01-19T11:02:17.721Z,97839.00
2023-01-19T11:04:47.710Z,97832.56
2023-01-19T11:07:21.514Z,97837.13
2023-01-19T11:09:49.594Z,97832.16
2023-01-19T11:12:18.908Z,97832.25
2023-01-19T11:14:46.584Z,97830.75
2023-01-19T11:17:31.145Z,97826.22
2023-01-19T11:20:02.569Z,97826.25
2023-01-19T11:22:33.086Z,97822.81
2023-01-19T11:25:04.827Z,97821.97
2023-01-19T11:27:34.595Z,97818.28
2023-01-19T11:30:10.432Z,97821.34
2023-01-19T11:32:37.251Z,97815.69
2023-01-19T11:35:37.795Z,97824.69
2023-01-19T11:38:18.272Z,97823.63
2023-01-19T11:40:59.087Z,97820.44
2023-01-19T11:43:39.759Z,97819.78
2023-01-19T11:46:15.331Z,97819.16
2023-01-19T11:49:02.097Z,97816.88
2023-01-19T11:51:35.493Z,97805.91
2023-01-19T11:54:07.615Z,97813.72
2023-01-19T11:56:35.170Z,97806.56
2023-01-19T11:59:02.778Z,97802.56
2023-01-19T12:01:34.225Z,97801.34
2023-01-19T12:04:19.126Z,97796.22
2023-01-19T12:06:51.224Z,97789.31
2023-01-19T12:09:22.443Z,97795.94
2023-01-19T12:12:08.523Z,97801.53
2023-01-19T12:14:41.120Z,97792.28
2023-01-19T12:17:16.570Z,97794.25
2023-01-19T12:19:53.433Z,97798.88
2023-01-19T12:22:23.807Z,97782.63
2023-01-19T12:24:58.097Z,97794.63
2023-01-19T12:27:44.141Z,97786.31
2023-01-19T12:30:23.854Z,97797.69
2023-01-19T12:32:53.337Z,97790.13
2023-01-19T12:35:57.546Z,97787.69
2023-01-19T12:38:29.903Z,97789.06
2023-01-19T12:41:20.875Z,97783.63
2023-01-19T12:43:49.312Z,97791.19
2023-01-19T12:46:30.630Z,97785.22
2023-01-19T12:49:41.559Z,97790.06
2023-01-19T12:52:23.923Z,97791.50
2023-01-19T12:55:07.746Z,97784.84
2023-01-19T12:57:46.354Z,97792.53
2023-01-19T13:00:21.882Z,97796.28
2023-01-19T13:02:54.151Z,97794.28
2023-01-19T13:05:32.966Z,97796.09
2023-01-19T13:08:02.975Z,97799.13
2023-01-19T13:11:00.714Z,97798.13
2023-01-19T13:13:37.303Z,97799.53
2023-01-19T13:16:19.276Z,97799.06
2023-01-19T13:18:48.844Z,97806.78
2023-01-19T13:21:44.667Z,97805.47
2023-01-19T13:24:11.383Z,97809.47
2023-01-19T13:26:52.766Z,97813.06
2023-01-19T13:29:34.488Z,97811.88
2023-01-19T13:32:06.727Z,97811.88
2023-01-19T13:34:42.492Z,97810.78
2023-01-19T13:37:19.024Z,97800.22
2023-01-19T13:39:50.023Z,97807.06
2023-01-19T13:42:27.808Z,97809.50
2023-01-19T13:44:58.931Z,97806.63
2023-01-19T13:47:34.312Z,97807.53
2023-01-19T13:50:01.411Z,97804.13
2023-01-19T13:52:29.233Z,97800.28
2023-01-19T13:55:04.548Z,97805.31
2023-01-19T13:57:42.905Z,97803.72
2023-01-19T14:00:11.808Z,97804.59
2023-01-19T14:02:40.335Z,97804.00
2023-01-19T14:05:15.345Z,97804.69
2023-01-19T14:07:42.247Z,97807.53
2023-01-19T14:10:14.455Z,97798.47
2023-01-19T14:12:51.315Z,97799.13
2023-01-19T14:15:24.768Z,97796.16
2023-01-19T14:18:23.395Z,97804.69
2023-01-19T14:20:58.840Z,97801.09
2023-01-19T14:23:47.726Z,97803.03
2023-01-19T14:26:42.974Z,97801.28
2023-01-19T14:29:27.712Z,97796.53
2023-01-19T14:32:00.170Z,97797.31
2023-01-19T14:34:38.963Z,97794.84
2023-01-19T14:37:15.552Z,97794.84
2023-01-19T14:39:46.408Z,97801.66
2023-01-19T14:42:18.866Z,97793.06
2023-01-19T14:44:48.848Z,97787.38
2023-01-19T14:47:43.053Z,97791.13
2023-01-19T14:51:01.389Z,97775.59
2023-01-19T14:53:29.931Z,97792.75
2023-01-19T14:56:02.833Z,97792.66
2023-01-19T14:58:32.144Z,97792.50
2023-01-19T15:00:59.373Z,97786.22
2023-01-19T15:03:42.642Z,97793.47
2023-01-19T15:06:21.186Z,97794.31
2023-01-19T15:08:50.042Z,97791.94
2023-01-19T15:11:31.017Z,97799.53
2023-01-19T15:13:58.993Z,97794.66
2023-01-19T15:16:27.669Z,97796.66
2023-01-19T15:18:54.680Z,97794.59
2023-01-19T15:21:28.887Z,97791.63
2023-01-19T15:23:55.686Z,97788.94
2023-01-19T15:26:25.248Z,97795.13
2023-01-19T15:28:52.728Z,97787.00
2023-01-19T15:31:22.601Z,97784.16
2023-01-19T15:33:49.795Z,97790.00
2023-01-19T15:36:21.446Z,97794.09
2023-01-19T15:38:51.640Z,97790.69
2023-01-19T15:41:27.392Z,97786.72
2023-01-19T15:43:54.082Z,97786.94
2023-01-19T15:46:21.473Z,97776.19
2023-01-19T15:48:51.631Z,97782.56
2023-01-19T15:51:20.576Z,97781.88
2023-01-19T15:53:48.071Z,97786.16
2023-01-19T15:56:16.460Z,97779.28
2023-01-19T15:58:43.190Z,97771.31
2023-01-19T16:01:18.231Z,97776.16
2023-01-19T16:03:45.541Z,97779.91
2023-01-19T16:06:13.231Z,97777.66
2023-01-19T16:08:40.042Z,97779.38
2023-01-19T16:11:09.059Z,97779.38
2023-01-19T16:13:35.596Z,97776.88
2023-01-19T16:16:08.099Z,97775.34
2023-01-19T16:18:34.663Z,97773.59
2023-01-19T16:21:01.403Z,97771.19
2023-01-19T16:23:27.881Z,97773.09
2023-01-19T16:25:59.942Z,97774.38
2023-01-19T16:28:27.263Z,97771.59
2023-01-19T16:30:54.137Z,97773.63
2023-01-19T16:33:20.731Z,97761.97
2023-01-19T16:35:47.396Z,97768.69
2023-01-19T16:38:28.973Z,97760.53
2023-01-19T16:40:55.659Z,97761.22
2023-01-19T16:43:22.264Z,97757.13
2023-01-19T16:46:00.733Z,97758.59
2023-01-19T16:48:28.112Z,97757.97
2023-01-19T16:51:05.892Z,97746.94
2023-01-19T16:53:37.112Z,97746.88
2023-01-19T16:56:08.500Z,97751.78
2023-01-19T16:58:37.508Z,97753.00
2023-01-19T17:01:17.302Z,97752.19
2023-01-19T17:03:45.570Z,97745.78
2023-01-19T17:06:14.818Z,97744.41
2023-01-19T17:08:41.609Z,97742.16
2023-01-19T17:11:20.886Z,97744.47
2023-01-19T17:13:54.533Z,97736.66
2023-01-19T17:16:22.085Z,97742.69
2023-01-19T17:18:48.628Z,97745.56
2023-01-19T17:21:19.339Z,97748.59
2023-01-19T17:23:48.112Z,97743.81
2023-01-19T17:26:16.044Z,97742.88
2023-01-19T17:28:43.287Z,97739.84
2023-01-19T17:31:12.788Z,97739.97
2023-01-19T17:33:39.940Z,97739.47
2023-01-19T17:36:09.699Z,97740.56
2023-01-19T17:38:36.971Z,97737.81
2023-01-19T17:41:12.905Z,97736.63
2023-01-19T17:43:39.684Z,97740.72
2023-01-19T17:46:06.235Z,97736.31
2023-01-19T17:48:32.828Z,97747.03
2023-01-19T17:51:07.452Z,97734.16
2023-01-19T17:53:34.107Z,97735.78
2023-01-19T17:56:09.395Z,97733.72
2023-01-19T17:58:35.928Z,97737.56
2023-01-19T18:01:11.017Z,97744.66
2023-01-19T18:03:37.813Z,97738.78
2023-01-19T18:06:04.597Z,97738.97
2023-01-19T18:08:32.526Z,97738.81
2023-01-19T18:11:00.970Z,97728.34
2023-01-19T18:13:28.463Z,97732.22
2023-01-19T18:16:02.732Z,97733.47
2023-01-19T18:18:29.662Z,97728.03
2023-01-19T18:21:07.951Z,97723.75
2023-01-19T18:23:35.300Z,97717.94
2023-01-19T18:26:07.081Z,97727.50
2023-01-19T18:28:33.633Z,97719.56
2023-01-19T18:31:00.623Z,97719.59
2023-01-19T18:33:27.864Z,97722.22
2023-01-19T18:35:54.907Z,97718.13
2023-01-19T18:38:21.887Z,97712.03
2023-01-19T18:40:48.472Z,97717.75
2023-01-19T18:43:15.182Z,97717.16
2023-01-19T18:45:42.123Z,97720.25
2023-01-19T18:48:09.528Z,97711.66
2023-01-19T18:50:37.679Z,97715.75
2023-01-19T18:53:04.198Z,97712.28
2023-01-19T18:55:30.777Z,97718.19
2023-01-19T18:57:57.309Z,97717.19
2023-01-19T19:00:23.783Z,97715.16
2023-01-19T19:02:50.388Z,97714.53
2023-01-19T19:05:16.901Z,97713.72
2023-01-19T19:07:43.385Z,97724.31
2023-01-19T19:10:10.191Z,97715.78
2023-01-19T19:12:36.791Z,97704.16
2023-01-19T19:15:03.595Z,97707.22
2023-01-19T19:17:30.142Z,97716.81
2023-01-19T19:19:56.585Z,97712.31
2023-01-19T19:22:25.435Z,97707.44
2023-01-19T19:24:52.317Z,97705.81
2023-01-19T19:27:18.828Z,97699.50
2023-01-19T19:29:48.877Z,97704.41
2023-01-19T19:32:20.429Z,97704.00
2023-01-19T19:34:52.863Z,97703.56
2023-01-19T19:37:20.091Z,97702.94
2023-01-19T19:39:47.714Z,97709.28
2023-01-19T19:42:14.231Z,97706.44
2023-01-19T19:44:40.747Z,97710.91
2023-01-19T19:47:07.582Z,97712.13
2023-01-19T19:49:34.174Z,97704.78
2023-01-19T19:52:00.699Z,97711.09
2023-01-19T19:54:27.186Z,97709.88
2023-01-19T19:56:53.776Z,97715.78
2023-01-19T19:59:20.279Z,97707.84
2023-01-19T20:01:47.177Z,97711.94
2023-01-19T20:04:14.058Z,97705.41
2023-01-19T20:06:44.526Z,97719.25
2023-01-19T20:09:15.708Z,97718.25
2023-01-19T20:11:44.633Z,97713.34
2023-01-19T20:14:13.094Z,97716.00
2023-01-19T20:16:40.758Z,97723.72
2023-01-19T20:19:07.872Z,97719.41
2023-01-19T20:21:40.007Z,97722.81
2023-01-19T20:24:19.007Z,97728.28
2023-01-19T20:26:48.576Z,97729.91
2023-01-19T20:29:15.281Z,97721.31
2023-01-19T20:31:56.233Z,97731.28
2023-01-19T20:34:28.074Z,97740.47
2023-01-19T20:36:54.940Z,97733.91
2023-01-19T20:39:23.271Z,97745.53
2023-01-19T20:41:51.481Z,97746.66
2023-01-19T20:44:27.113Z,97739.84
2023-01-19T20:46:54.999Z,97738.63
2023-01-19T20:49:21.556Z,97739.06
2023-01-19T20:51:48.416Z,97747.00
2023-01-19T20:54:17.273Z,97750.50
2023-01-19T20:56:44.130Z,97750.91
2023-01-19T20:59:11.677Z,97755.78
2023-01-19T21:01:39.291Z,97761.00
2023-01-19T21:04:06.145Z,97756.91
2023-01-19T21:06:33.003Z,97762.94
2023-01-19T21:08:59.499Z,97768.22
2023-01-19T21:11:26.487Z,97761.75
2023-01-19T21:13:56.033Z,97770.91
2023-01-19T21:16:24.472Z,97774.16
2023-01-19T21:18:51.524Z,97771.25
2023-01-19T21:21:29.850Z,97776.19
2023-01-19T21:23:58.611Z,97771.69
2023-01-19T21:26:25.279Z,97767.94
2023-01-19T21:28:51.814Z,97773.69
2023-01-19T21:31:18.582Z,97781.94
2023-01-19T21:33:45.410Z,97775.56
2023-01-19T21:36:12.018Z,97779.78
2023-01-19T21:38:39.309Z,97781.59
2023-01-19T21:41:08.522Z,97785.03
2023-01-19T21:43:36.782Z,97777.63
2023-01-19T21:46:34.003Z,97793.31
2023-01-19T21:49:02.641Z,97798.09
2023-01-19T21:51:33.302Z,97794.56
2023-01-19T21:54:05.843Z,97802.81
2023-01-19T21:56:33.250Z,97798.53
2023-01-19T21:59:04.264Z,97792.91
2023-01-19T22:01:32.807Z,97795.69
2023-01-19T22:03:59.514Z,97813.56
2023-01-19T22:06:26.971Z,97813.66
2023-01-19T22:08:54.541Z,97820.56
2023-01-19T22:11:21.817Z,97819.69
2023-01-19T22:13:48.593Z,97824.53
2023-01-19T22:16:18.283Z,97827.31
2023-01-19T22:18:46.694Z,97830.03
2023-01-19T22:21:15.692Z,97832.69
2023-01-19T22:23:43.041Z,97843.34
2023-01-19T22:26:11.093Z,97847.09
2023-01-19T22:28:38.119Z,97848.63
2023-01-19T22:31:13.169Z,97839.03
2023-01-19T22:33:43.023Z,97847.75
2023-01-19T22:36:22.585Z,97848.53
2023-01-19T22:38:57.790Z,97846.44
2023-01-19T22:41:25.419Z,97852.09
2023-01-19T22:43:55.112Z,97857.38
2023-01-19T22:46:24.060Z,97855.13
2023-01-19T22:48:50.923Z,97843.09
2023-01-19T22:51:18.411Z,97847.84
2023-01-19T22:53:45.274Z,97855.97
2023-01-19T22:56:23.284Z,97855.06
2023-01-19T22:58:50.465Z,97857.03
2023-01-19T23:01:22.498Z,97860.03
2023-01-19T23:03:49.877Z,97867.00
2023-01-19T23:06:24.517Z,97857.63
2023-01-19T23:08:51.493Z,97854.78
2023-01-19T23:11:20.434Z,97858.56
2023-01-19T23:13:47.198Z,97867.31
2023-01-19T23:16:14.399Z,97866.94
2023-01-19T23:18:42.069Z,97869.63
2023-01-19T23:21:11.114Z,97875.78
2023-01-19T23:23:37.962Z,97874.34
2023-01-19T23:26:08.574Z,97871.16
2023-01-19T23:28:36.624Z,97877.44
2023-01-19T23:31:16.710Z,97885.13
2023-01-19T23:33:44.217Z,97882.84
2023-01-19T23:36:12.435Z,97891.06
2023-01-19T23:38:39.283Z,97886.00
2023-01-19T23:41:05.832Z,97879.72
2023-01-19T23:43:32.482Z,97886.47
2023-01-19T23:46:03.618Z,97898.63
2023-01-19T23:48:30.209Z,97897.97
2023-01-19T23:50:56.789Z,97895.78
2023-01-19T23:53:23.373Z,97895.50
2023-01-19T23:55:49.875Z,97886.09
2023-01-19T23:58:16.296Z,97893.41
